sensor_id;sensor_type;location;lat;lon;timestamp;pressure;altitude;pressure_sealevel;temperature;humidity
79378;BME280;68959;53.132;17.984;2023-04-03T00:01:17;102246.34;;;-0.73;69.07
79378;BME280;68959;53.132;17.984;2023-04-03T00:03:44;102249.20;;;-0.76;68.86
79378;BME280;68959;53.132;17.984;2023-04-03T00:06:11;102246.77;;;-0.82;68.71
79378;BME280;68959;53.132;17.984;2023-04-03T00:08:39;102243.46;;;-0.83;68.71
79378;BME280;68959;53.132;17.984;2023-04-03T00:11:07;102242.32;;;-0.83;69.35
79378;BME280;68959;53.132;17.984;2023-04-03T00:13:34;102247.69;;;-0.82;69.17
79378;BME280;68959;53.132;17.984;2023-04-03T00:16:01;102245.93;;;-0.81;68.98
79378;BME280;68959;53.132;17.984;2023-04-03T00:18:30;102244.25;;;-0.82;69.17
79378;BME280;68959;53.132;17.984;2023-04-03T00:20:57;102238.60;;;-0.87;68.72
79378;BME280;68959;53.132;17.984;2023-04-03T00:23:24;102242.69;;;-0.88;69.12
79378;BME280;68959;53.132;17.984;2023-04-03T00:25:52;102241.23;;;-0.90;69.66
79378;BME280;68959;53.132;17.984;2023-04-03T00:28:19;102241.21;;;-0.93;69.44
79378;BME280;68959;53.132;17.984;2023-04-03T00:30:48;102239.84;;;-0.93;68.87
79378;BME280;68959;53.132;17.984;2023-04-03T00:33:16;102237.32;;;-0.95;70.01
79378;BME280;68959;53.132;17.984;2023-04-03T00:35:43;102235.14;;;-0.98;70.40
79378;BME280;68959;53.132;17.984;2023-04-03T00:38:10;102232.29;;;-1.02;70.06
79378;BME280;68959;53.132;17.984;2023-04-03T00:40:41;102234.48;;;-1.04;70.29
79378;BME280;68959;53.132;17.984;2023-04-03T00:43:21;102236.23;;;-1.05;70.43
79378;BME280;68959;53.132;17.984;2023-04-03T00:45:51;102239.98;;;-1.05;70.53
79378;BME280;68959;53.132;17.984;2023-04-03T00:48:29;102237.78;;;-1.04;71.33
79378;BME280;68959;53.132;17.984;2023-04-03T00:50:58;102238.73;;;-1.05;70.17
79378;BME280;68959;53.132;17.984;2023-04-03T00:53:30;102242.34;;;-1.05;70.81
79378;BME280;68959;53.132;17.984;2023-04-03T00:55:58;102242.14;;;-1.05;70.54
79378;BME280;68959;53.132;17.984;2023-04-03T00:58:32;102244.23;;;-1.06;71.46
79378;BME280;68959;53.132;17.984;2023-04-03T01:01:03;102244.98;;;-1.08;70.36
79378;BME280;68959;53.132;17.984;2023-04-03T01:03:31;102245.81;;;-1.11;70.58
79378;BME280;68959;53.132;17.984;2023-04-03T01:05:59;102246.68;;;-1.14;70.95
79378;BME280;68959;53.132;17.984;2023-04-03T01:08:26;102243.41;;;-1.17;70.56
79378;BME280;68959;53.132;17.984;2023-04-03T01:10:53;102241.56;;;-1.20;70.97
79378;BME280;68959;53.132;17.984;2023-04-03T01:13:27;102244.41;;;-1.24;70.12
79378;BME280;68959;53.132;17.984;2023-04-03T01:15:55;102246.88;;;-1.28;71.19
79378;BME280;68959;53.132;17.984;2023-04-03T01:18:23;102248.11;;;-1.31;70.71
79378;BME280;68959;53.132;17.984;2023-04-03T01:24:30;102249.30;;;-1.32;71.65
79378;BME280;68959;53.132;17.984;2023-04-03T01:27:01;102249.58;;;-1.31;71.33
79378;BME280;68959;53.132;17.984;2023-04-03T01:29:29;102254.65;;;-1.28;71.12
79378;BME280;68959;53.132;17.984;2023-04-03T01:31:58;102255.23;;;-1.28;71.35
79378;BME280;68959;53.132;17.984;2023-04-03T01:34:26;102256.98;;;-1.28;71.17
79378;BME280;68959;53.132;17.984;2023-04-03T01:36:54;102261.91;;;-1.28;72.15
79378;BME280;68959;53.132;17.984;2023-04-03T01:39:21;102260.52;;;-1.29;71.31
79378;BME280;68959;53.132;17.984;2023-04-03T01:41:48;102263.12;;;-1.31;71.07
79378;BME280;68959;53.132;17.984;2023-04-03T01:44:29;102262.73;;;-1.32;71.64
79378;BME280;68959;53.132;17.984;2023-04-03T01:46:56;102261.84;;;-1.34;71.96
79378;BME280;68959;53.132;17.984;2023-04-03T01:49:23;102260.80;;;-1.37;72.21
79378;BME280;68959;53.132;17.984;2023-04-03T01:51:50;102264.95;;;-1.38;72.56
79378;BME280;68959;53.132;17.984;2023-04-03T01:54:17;102266.11;;;-1.41;72.38
79378;BME280;68959;53.132;17.984;2023-04-03T01:56:44;102266.34;;;-1.41;72.36
79378;BME280;68959;53.132;17.984;2023-04-03T01:59:11;102266.15;;;-1.39;72.29
79378;BME280;68959;53.132;17.984;2023-04-03T02:01:37;102267.16;;;-1.39;71.96
79378;BME280;68959;53.132;17.984;2023-04-03T02:04:04;102264.31;;;-1.37;72.74
79378;BME280;68959;53.132;17.984;2023-04-03T02:06:31;102270.55;;;-1.36;72.10
79378;BME280;68959;53.132;17.984;2023-04-03T02:08:58;102270.19;;;-1.36;72.25
79378;BME280;68959;53.132;17.984;2023-04-03T02:11:25;102267.38;;;-1.37;72.35
79378;BME280;68959;53.132;17.984;2023-04-03T02:13:53;102270.67;;;-1.39;72.11
79378;BME280;68959;53.132;17.984;2023-04-03T02:16:19;102275.02;;;-1.41;71.94
79378;BME280;68959;53.132;17.984;2023-04-03T02:18:46;102271.01;;;-1.44;72.88
79378;BME280;68959;53.132;17.984;2023-04-03T02:21:12;102272.10;;;-1.46;72.71
79378;BME280;68959;53.132;17.984;2023-04-03T02:23:39;102269.91;;;-1.49;72.51
79378;BME280;68959;53.132;17.984;2023-04-03T02:26:11;102273.55;;;-1.51;73.03
79378;BME280;68959;53.132;17.984;2023-04-03T02:28:39;102271.85;;;-1.54;73.46
79378;BME280;68959;53.132;17.984;2023-04-03T02:31:08;102273.77;;;-1.54;73.60
79378;BME280;68959;53.132;17.984;2023-04-03T02:33:35;102273.52;;;-1.53;73.58
79378;BME280;68959;53.132;17.984;2023-04-03T02:36:06;102275.00;;;-1.51;73.55
79378;BME280;68959;53.132;17.984;2023-04-03T02:38:34;102283.17;;;-1.48;73.27
79378;BME280;68959;53.132;17.984;2023-04-03T02:41:11;102284.23;;;-1.48;73.11
79378;BME280;68959;53.132;17.984;2023-04-03T02:43:38;102287.60;;;-1.46;73.22
79378;BME280;68959;53.132;17.984;2023-04-03T02:46:06;102292.03;;;-1.46;73.43
79378;BME280;68959;53.132;17.984;2023-04-03T02:48:33;102290.17;;;-1.47;73.80
79378;BME280;68959;53.132;17.984;2023-04-03T02:51:00;102294.24;;;-1.49;73.36
79378;BME280;68959;53.132;17.984;2023-04-03T02:53:27;102295.67;;;-1.52;73.20
79378;BME280;68959;53.132;17.984;2023-04-03T02:55:54;102298.33;;;-1.55;73.85
79378;BME280;68959;53.132;17.984;2023-04-03T02:58:21;102298.23;;;-1.58;73.10
79378;BME280;68959;53.132;17.984;2023-04-03T03:00:48;102300.43;;;-1.61;73.48
79378;BME280;68959;53.132;17.984;2023-04-03T03:03:15;102300.64;;;-1.65;74.06
79378;BME280;68959;53.132;17.984;2023-04-03T03:05:41;102298.45;;;-1.69;73.82
79378;BME280;68959;53.132;17.984;2023-04-03T03:08:08;102301.46;;;-1.70;74.80
79378;BME280;68959;53.132;17.984;2023-04-03T03:10:34;102303.11;;;-1.70;74.49
79378;BME280;68959;53.132;17.984;2023-04-03T03:13:01;102301.30;;;-1.70;73.96
79378;BME280;68959;53.132;17.984;2023-04-03T03:15:30;102305.30;;;-1.69;73.90
79378;BME280;68959;53.132;17.984;2023-04-03T03:17:56;102305.38;;;-1.69;74.29
79378;BME280;68959;53.132;17.984;2023-04-03T03:20:23;102304.77;;;-1.69;74.25
79378;BME280;68959;53.132;17.984;2023-04-03T03:22:50;102307.81;;;-1.67;74.35
79378;BME280;68959;53.132;17.984;2023-04-03T03:25:16;102309.83;;;-1.67;74.68
79378;BME280;68959;53.132;17.984;2023-04-03T03:27:43;102306.91;;;-1.68;74.35
79378;BME280;68959;53.132;17.984;2023-04-03T03:30:10;102311.05;;;-1.70;74.02
79378;BME280;68959;53.132;17.984;2023-04-03T03:32:37;102313.66;;;-1.73;74.41
79378;BME280;68959;53.132;17.984;2023-04-03T03:35:04;102319.52;;;-1.75;74.48
79378;BME280;68959;53.132;17.984;2023-04-03T03:37:31;102319.34;;;-1.77;75.19
79378;BME280;68959;53.132;17.984;2023-04-03T03:39:58;102319.17;;;-1.81;74.47
79378;BME280;68959;53.132;17.984;2023-04-03T03:42:25;102319.23;;;-1.81;74.97
79378;BME280;68959;53.132;17.984;2023-04-03T03:44:52;102321.42;;;-1.82;74.12
79378;BME280;68959;53.132;17.984;2023-04-03T03:47:19;102324.97;;;-1.81;74.87
79378;BME280;68959;53.132;17.984;2023-04-03T03:49:46;102324.30;;;-1.79;74.66
79378;BME280;68959;53.132;17.984;2023-04-03T03:52:13;102323.83;;;-1.80;74.96
79378;BME280;68959;53.132;17.984;2023-04-03T03:54:40;102326.13;;;-1.80;74.70
79378;BME280;68959;53.132;17.984;2023-04-03T03:57:07;102330.91;;;-1.80;74.52
79378;BME280;68959;53.132;17.984;2023-04-03T03:59:34;102333.91;;;-1.81;75.26
79378;BME280;68959;53.132;17.984;2023-04-03T04:02:01;102336.42;;;-1.83;74.99
79378;BME280;68959;53.132;17.984;2023-04-03T04:04:28;102335.73;;;-1.85;75.15
79378;BME280;68959;53.132;17.984;2023-04-03T04:06:55;102334.88;;;-1.88;75.60
79378;BME280;68959;53.132;17.984;2023-04-03T04:09:22;102338.25;;;-1.90;75.26
79378;BME280;68959;53.132;17.984;2023-04-03T04:11:49;102344.45;;;-1.93;75.07
79378;BME280;68959;53.132;17.984;2023-04-03T04:14:16;102343.40;;;-1.95;75.39
79378;BME280;68959;53.132;17.984;2023-04-03T04:16:43;102346.11;;;-1.95;75.97
79378;BME280;68959;53.132;17.984;2023-04-03T04:19:14;102343.08;;;-1.94;75.77
79378;BME280;68959;53.132;17.984;2023-04-03T04:21:41;102349.77;;;-1.90;75.42
79378;BME280;68959;53.132;17.984;2023-04-03T04:24:08;102354.58;;;-1.88;74.88
79378;BME280;68959;53.132;17.984;2023-04-03T04:26:35;102357.52;;;-1.85;74.83
79378;BME280;68959;53.132;17.984;2023-04-03T04:29:02;102356.28;;;-1.83;74.82
79378;BME280;68959;53.132;17.984;2023-04-03T04:31:31;102358.41;;;-1.81;74.72
79378;BME280;68959;53.132;17.984;2023-04-03T04:33:58;102353.91;;;-1.81;75.12
79378;BME280;68959;53.132;17.984;2023-04-03T04:36:25;102358.38;;;-1.80;75.50
79378;BME280;68959;53.132;17.984;2023-04-03T04:38:52;102356.35;;;-1.80;74.72
79378;BME280;68959;53.132;17.984;2023-04-03T04:41:20;102357.58;;;-1.80;74.90
79378;BME280;68959;53.132;17.984;2023-04-03T04:43:49;102359.69;;;-1.79;75.08
79378;BME280;68959;53.132;17.984;2023-04-03T04:46:16;102356.86;;;-1.78;74.91
79378;BME280;68959;53.132;17.984;2023-04-03T04:48:47;102358.55;;;-1.78;75.24
79378;BME280;68959;53.132;17.984;2023-04-03T04:51:15;102367.95;;;-1.77;74.68
79378;BME280;68959;53.132;17.984;2023-04-03T04:53:42;102366.45;;;-1.76;74.38
79378;BME280;68959;53.132;17.984;2023-04-03T04:56:10;102370.85;;;-1.73;74.43
79378;BME280;68959;53.132;17.984;2023-04-03T04:58:38;102372.00;;;-1.67;74.50
79378;BME280;68959;53.132;17.984;2023-04-03T05:01:07;102375.74;;;-1.57;74.94
79378;BME280;68959;53.132;17.984;2023-04-03T05:03:36;102377.04;;;-1.47;74.46
79378;BME280;68959;53.132;17.984;2023-04-03T05:06:03;102380.47;;;-1.36;73.84
79378;BME280;68959;53.132;17.984;2023-04-03T05:08:31;102382.89;;;-1.28;73.94
79378;BME280;68959;53.132;17.984;2023-04-03T05:10:58;102379.60;;;-1.22;73.60
79378;BME280;68959;53.132;17.984;2023-04-03T05:13:26;102379.84;;;-1.18;73.42
79378;BME280;68959;53.132;17.984;2023-04-03T05:15:53;102386.41;;;-1.11;73.00
79378;BME280;68959;53.132;17.984;2023-04-03T05:18:20;102385.10;;;-1.07;72.92
79378;BME280;68959;53.132;17.984;2023-04-03T05:20:49;102384.19;;;-1.03;72.88
79378;BME280;68959;53.132;17.984;2023-04-03T05:23:17;102385.96;;;-0.98;72.74
79378;BME280;68959;53.132;17.984;2023-04-03T05:25:45;102383.86;;;-0.91;72.47
79378;BME280;68959;53.132;17.984;2023-04-03T05:28:13;102383.02;;;-0.85;72.47
79378;BME280;68959;53.132;17.984;2023-04-03T05:30:41;102380.66;;;-0.78;72.02
79378;BME280;68959;53.132;17.984;2023-04-03T05:33:08;102379.31;;;-0.69;71.93
79378;BME280;68959;53.132;17.984;2023-04-03T05:35:40;102382.79;;;-0.57;71.25
79378;BME280;68959;53.132;17.984;2023-04-03T05:38:08;102384.33;;;-0.44;70.94
79378;BME280;68959;53.132;17.984;2023-04-03T05:40:35;102383.38;;;-0.30;70.55
79378;BME280;68959;53.132;17.984;2023-04-03T05:43:02;102379.17;;;-0.17;70.05
79378;BME280;68959;53.132;17.984;2023-04-03T05:45:32;102378.08;;;-0.06;69.45
79378;BME280;68959;53.132;17.984;2023-04-03T05:47:59;102379.02;;;0.03;69.03
79378;BME280;68959;53.132;17.984;2023-04-03T05:50:27;102381.20;;;0.13;68.58
79378;BME280;68959;53.132;17.984;2023-04-03T05:52:57;102380.89;;;0.22;68.26
79378;BME280;68959;53.132;17.984;2023-04-03T05:55:25;102376.46;;;0.30;67.45
79378;BME280;68959;53.132;17.984;2023-04-03T05:57:52;102376.46;;;0.38;67.13
79378;BME280;68959;53.132;17.984;2023-04-03T06:00:19;102381.09;;;0.49;67.14
79378;BME280;68959;53.132;17.984;2023-04-03T06:02:50;102376.13;;;0.63;65.59
79378;BME280;68959;53.132;17.984;2023-04-03T06:05:19;102381.58;;;0.90;66.22
79378;BME280;68959;53.132;17.984;2023-04-03T06:07:46;102382.61;;;1.30;64.65
79378;BME280;68959;53.132;17.984;2023-04-03T06:10:13;102383.52;;;1.62;64.30
79378;BME280;68959;53.132;17.984;2023-04-03T06:12:39;102387.23;;;1.88;63.52
79378;BME280;68959;53.132;17.984;2023-04-03T06:15:08;102383.52;;;2.29;62.16
79378;BME280;68959;53.132;17.984;2023-04-03T06:17:37;102380.42;;;3.04;60.93
79378;BME280;68959;53.132;17.984;2023-04-03T06:20:04;102377.99;;;3.35;58.98
79378;BME280;68959;53.132;17.984;2023-04-03T06:22:31;102383.62;;;3.23;58.72
79378;BME280;68959;53.132;17.984;2023-04-03T06:24:58;102379.69;;;3.39;58.01
79378;BME280;68959;53.132;17.984;2023-04-03T06:27:25;102384.45;;;3.67;55.90
79378;BME280;68959;53.132;17.984;2023-04-03T06:29:51;102386.45;;;4.13;54.20
79378;BME280;68959;53.132;17.984;2023-04-03T06:32:18;102390.23;;;4.41;53.93
79378;BME280;68959;53.132;17.984;2023-04-03T06:34:44;102389.59;;;4.60;53.54
79378;BME280;68959;53.132;17.984;2023-04-03T06:37:19;102392.39;;;4.72;52.91
79378;BME280;68959;53.132;17.984;2023-04-03T06:39:46;102389.23;;;4.52;51.39
79378;BME280;68959;53.132;17.984;2023-04-03T06:42:13;102387.52;;;4.43;51.31
79378;BME280;68959;53.132;17.984;2023-04-03T06:44:47;102394.01;;;4.36;51.30
79378;BME280;68959;53.132;17.984;2023-04-03T06:47:15;102396.86;;;4.52;49.82
79378;BME280;68959;53.132;17.984;2023-04-03T06:49:43;102394.17;;;4.79;49.64
79378;BME280;68959;53.132;17.984;2023-04-03T06:52:10;102403.86;;;5.09;49.55
79378;BME280;68959;53.132;17.984;2023-04-03T06:54:39;102401.63;;;5.64;49.06
79378;BME280;68959;53.132;17.984;2023-04-03T06:57:07;102408.16;;;5.92;48.62
79378;BME280;68959;53.132;17.984;2023-04-03T06:59:35;102407.55;;;6.57;47.77
79378;BME280;68959;53.132;17.984;2023-04-03T07:02:03;102409.80;;;6.29;46.95
79378;BME280;68959;53.132;17.984;2023-04-03T07:04:30;102415.76;;;5.81;47.68
79378;BME280;68959;53.132;17.984;2023-04-03T07:06:57;102416.23;;;5.49;46.90
79378;BME280;68959;53.132;17.984;2023-04-03T07:09:23;102421.20;;;5.33;47.54
79378;BME280;68959;53.132;17.984;2023-04-03T07:11:51;102420.80;;;5.42;47.13
79378;BME280;68959;53.132;17.984;2023-04-03T07:14:17;102422.15;;;5.20;47.42
79378;BME280;68959;53.132;17.984;2023-04-03T07:16:44;102420.18;;;5.02;47.37
79378;BME280;68959;53.132;17.984;2023-04-03T07:19:10;102429.53;;;4.75;46.76
79378;BME280;68959;53.132;17.984;2023-04-03T07:21:37;102430.61;;;4.61;47.99
79378;BME280;68959;53.132;17.984;2023-04-03T07:24:04;102434.91;;;4.80;47.39
79378;BME280;68959;53.132;17.984;2023-04-03T07:26:31;102438.89;;;5.04;47.62
79378;BME280;68959;53.132;17.984;2023-04-03T07:28:58;102435.48;;;5.08;48.46
79378;BME280;68959;53.132;17.984;2023-04-03T07:31:24;102436.96;;;5.41;47.24
79378;BME280;68959;53.132;17.984;2023-04-03T07:33:52;102441.02;;;5.33;46.87
79378;BME280;68959;53.132;17.984;2023-04-03T07:36:20;102439.23;;;5.76;45.99
79378;BME280;68959;53.132;17.984;2023-04-03T07:38:47;102438.77;;;5.77;45.20
79378;BME280;68959;53.132;17.984;2023-04-03T07:41:16;102440.00;;;6.34;44.72
79378;BME280;68959;53.132;17.984;2023-04-03T07:43:44;102431.97;;;7.33;44.28
79378;BME280;68959;53.132;17.984;2023-04-03T07:46:11;102431.94;;;8.28;42.77
79378;BME280;68959;53.132;17.984;2023-04-03T07:48:38;102425.39;;;9.25;40.75
79378;BME280;68959;53.132;17.984;2023-04-03T07:51:05;102426.10;;;9.93;39.27
79378;BME280;68959;53.132;17.984;2023-04-03T07:53:32;102426.80;;;10.54;39.72
79378;BME280;68959;53.132;17.984;2023-04-03T07:55:59;102417.31;;;10.83;35.21
79378;BME280;68959;53.132;17.984;2023-04-03T07:58:26;102424.27;;;11.37;34.69
79378;BME280;68959;53.132;17.984;2023-04-03T08:00:53;102421.89;;;11.70;33.13
79378;BME280;68959;53.132;17.984;2023-04-03T08:03:20;102427.08;;;11.11;32.45
79378;BME280;68959;53.132;17.984;2023-04-03T08:05:48;102427.52;;;10.49;33.65
79378;BME280;68959;53.132;17.984;2023-04-03T08:08:18;102427.66;;;10.11;32.57
79378;BME280;68959;53.132;17.984;2023-04-03T08:10:53;102431.35;;;10.75;32.58
79378;BME280;68959;53.132;17.984;2023-04-03T08:13:21;102430.42;;;11.45;32.22
79378;BME280;68959;53.132;17.984;2023-04-03T08:15:48;102419.17;;;12.19;29.91
79378;BME280;68959;53.132;17.984;2023-04-03T08:18:15;102428.92;;;12.25;29.89
79378;BME280;68959;53.132;17.984;2023-04-03T08:20:43;102428.02;;;12.73;30.35
79378;BME280;68959;53.132;17.984;2023-04-03T08:23:10;102428.79;;;12.91;30.11
79378;BME280;68959;53.132;17.984;2023-04-03T08:25:39;102428.20;;;13.72;29.67
79378;BME280;68959;53.132;17.984;2023-04-03T08:28:06;102425.49;;;14.41;28.94
79378;BME280;68959;53.132;17.984;2023-04-03T08:30:34;102419.28;;;14.91;27.28
79378;BME280;68959;53.132;17.984;2023-04-03T08:33:02;102421.22;;;15.53;26.30
79378;BME280;68959;53.132;17.984;2023-04-03T08:35:29;102418.27;;;15.69;23.34
79378;BME280;68959;53.132;17.984;2023-04-03T08:37:55;102423.54;;;15.78;24.89
79378;BME280;68959;53.132;17.984;2023-04-03T08:40:23;102418.98;;;16.14;24.27
79378;BME280;68959;53.132;17.984;2023-04-03T08:45:50;102420.31;;;17.34;23.71
79378;BME280;68959;53.132;17.984;2023-04-03T08:48:21;102419.46;;;17.64;22.55
79378;BME280;68959;53.132;17.984;2023-04-03T08:50:57;102415.71;;;17.63;20.82
79378;BME280;68959;53.132;17.984;2023-04-03T08:53:28;102417.39;;;17.76;22.01
79378;BME280;68959;53.132;17.984;2023-04-03T08:56:03;102416.98;;;18.21;22.76
79378;BME280;68959;53.132;17.984;2023-04-03T08:58:41;102417.79;;;17.50;21.63
79378;BME280;68959;53.132;17.984;2023-04-03T09:01:19;102418.52;;;17.84;20.54
79378;BME280;68959;53.132;17.984;2023-04-03T09:03:47;102415.84;;;18.30;21.45
79378;BME280;68959;53.132;17.984;2023-04-03T09:06:17;102413.69;;;18.74;20.24
79378;BME280;68959;53.132;17.984;2023-04-03T09:11:24;102415.38;;;19.60;19.72
79378;BME280;68959;53.132;17.984;2023-04-03T09:14:03;102414.73;;;19.75;18.46
79378;BME280;68959;53.132;17.984;2023-04-03T09:16:50;102411.52;;;19.95;17.85
79378;BME280;68959;53.132;17.984;2023-04-03T09:22:26;102412.81;;;20.88;18.09
79378;BME280;68959;53.132;17.984;2023-04-03T09:24:59;102413.15;;;21.32;17.42
79378;BME280;68959;53.132;17.984;2023-04-03T09:27:28;102416.45;;;21.19;18.01
79378;BME280;68959;53.132;17.984;2023-04-03T09:29:56;102418.99;;;21.12;17.18
79378;BME280;68959;53.132;17.984;2023-04-03T09:32:33;102414.53;;;21.29;17.45
79378;BME280;68959;53.132;17.984;2023-04-03T09:35:27;102415.14;;;21.67;17.10
79378;BME280;68959;53.132;17.984;2023-04-03T09:38:02;102411.54;;;22.19;16.29
79378;BME280;68959;53.132;17.984;2023-04-03T09:41:13;102405.73;;;22.57;15.51
79378;BME280;68959;53.132;17.984;2023-04-03T09:43:54;102403.55;;;22.57;15.29
79378;BME280;68959;53.132;17.984;2023-04-03T09:46:32;102407.08;;;21.30;16.79
79378;BME280;68959;53.132;17.984;2023-04-03T09:49:03;102416.27;;;19.82;18.13
79378;BME280;68959;53.132;17.984;2023-04-03T09:51:30;102418.36;;;19.19;17.93
79378;BME280;68959;53.132;17.984;2023-04-03T09:53:58;102421.75;;;18.48;17.28
79378;BME280;68959;53.132;17.984;2023-04-03T09:56:28;102429.49;;;17.02;18.43
79378;BME280;68959;53.132;17.984;2023-04-03T10:01:28;102436.30;;;15.16;20.17
79378;BME280;68959;53.132;17.984;2023-04-03T10:04:13;102422.54;;;15.89;19.84
79378;BME280;68959;53.132;17.984;2023-04-03T10:09:29;102421.21;;;15.70;20.13
79378;BME280;68959;53.132;17.984;2023-04-03T10:12:06;102426.02;;;14.97;20.21
79378;BME280;68959;53.132;17.984;2023-04-03T10:17:57;102408.73;;;18.70;17.23
79378;BME280;68959;53.132;17.984;2023-04-03T10:20:37;102417.18;;;17.32;18.48
79378;BME280;68959;53.132;17.984;2023-04-03T10:23:18;102413.73;;;18.96;17.52
79378;BME280;68959;53.132;17.984;2023-04-03T10:28:34;102411.52;;;17.48;18.21
79378;BME280;68959;53.132;17.984;2023-04-03T10:31:34;102424.45;;;15.30;19.82
79378;BME280;68959;53.132;17.984;2023-04-03T10:34:06;102425.20;;;13.79;21.65
79378;BME280;68959;53.132;17.984;2023-04-03T10:39:19;102427.48;;;13.34;21.65
79378;BME280;68959;53.132;17.984;2023-04-03T10:45:11;102426.98;;;13.68;21.95
79378;BME280;68959;53.132;17.984;2023-04-03T10:50:47;102419.15;;;15.35;20.52
79378;BME280;68959;53.132;17.984;2023-04-03T10:59:13;102423.66;;;14.27;22.13
79378;BME280;68959;53.132;17.984;2023-04-03T11:01:44;102405.27;;;17.55;18.95
79378;BME280;68959;53.132;17.984;2023-04-03T11:04:13;102399.56;;;18.53;18.40
79378;BME280;68959;53.132;17.984;2023-04-03T11:06:47;102390.09;;;18.24;18.63
79378;BME280;68959;53.132;17.984;2023-04-03T11:09:23;102403.58;;;16.45;19.51
79378;BME280;68959;53.132;17.984;2023-04-03T11:11:56;102410.60;;;14.38;21.16
79378;BME280;68959;53.132;17.984;2023-04-03T11:14:28;102418.65;;;13.20;22.37
79378;BME280;68959;53.132;17.984;2023-04-03T11:20:06;102418.09;;;12.04;23.32
79378;BME280;68959;53.132;17.984;2023-04-03T11:25:15;102404.63;;;15.77;20.05
79378;BME280;68959;53.132;17.984;2023-04-03T11:27:49;102400.05;;;17.82;18.56
79378;BME280;68959;53.132;17.984;2023-04-03T11:30:22;102392.58;;;19.78;16.65
79378;BME280;68959;53.132;17.984;2023-04-03T11:36:08;102367.54;;;23.90;14.73
79378;BME280;68959;53.132;17.984;2023-04-03T11:38:41;102363.93;;;25.29;13.40
79378;BME280;68959;53.132;17.984;2023-04-03T11:41:09;102356.61;;;26.22;12.48
79378;BME280;68959;53.132;17.984;2023-04-03T11:43:43;102348.41;;;26.20;12.77
79378;BME280;68959;53.132;17.984;2023-04-03T11:46:27;102353.41;;;24.96;12.96
79378;BME280;68959;53.132;17.984;2023-04-03T12:13:36;102383.66;;;12.22;22.95
79378;BME280;68959;53.132;17.984;2023-04-03T12:16:04;102387.24;;;11.51;23.43
79378;BME280;68959;53.132;17.984;2023-04-03T12:21:24;102390.79;;;11.35;24.64
79378;BME280;68959;53.132;17.984;2023-04-03T12:30:12;102378.95;;;12.63;23.39
79378;BME280;68959;53.132;17.984;2023-04-03T12:38:41;102352.05;;;19.67;17.65
79378;BME280;68959;53.132;17.984;2023-04-03T12:44:06;102363.60;;;15.22;20.89
79378;BME280;68959;53.132;17.984;2023-04-03T12:46:43;102370.62;;;13.51;22.25
79378;BME280;68959;53.132;17.984;2023-04-03T12:51:55;102365.20;;;11.87;24.26
79378;BME280;68959;53.132;17.984;2023-04-03T12:54:27;102374.25;;;11.69;24.76
79378;BME280;68959;53.132;17.984;2023-04-03T12:57:29;102364.76;;;12.31;24.06
79378;BME280;68959;53.132;17.984;2023-04-03T12:59:56;102365.41;;;12.37;24.19
79378;BME280;68959;53.132;17.984;2023-04-03T13:02:31;102353.40;;;14.88;21.82
79378;BME280;68959;53.132;17.984;2023-04-03T13:05:07;102345.23;;;16.81;20.08
79378;BME280;68959;53.132;17.984;2023-04-03T13:07:36;102339.95;;;16.07;19.67
79378;BME280;68959;53.132;17.984;2023-04-03T13:12:35;102354.02;;;15.44;20.01
79378;BME280;68959;53.132;17.984;2023-04-03T13:15:19;102351.02;;;15.73;20.07
79378;BME280;68959;53.132;17.984;2023-04-03T13:17:46;102346.66;;;16.72;19.59
79378;BME280;68959;53.132;17.984;2023-04-03T13:20:20;102336.95;;;19.03;17.41
79378;BME280;68959;53.132;17.984;2023-04-03T13:22:51;102343.73;;;18.35;17.93
79378;BME280;68959;53.132;17.984;2023-04-03T13:25:20;102339.33;;;16.69;18.27
79378;BME280;68959;53.132;17.984;2023-04-03T13:27:48;102336.03;;;17.95;17.83
79378;BME280;68959;53.132;17.984;2023-04-03T13:30:30;102323.05;;;19.55;17.34
79378;BME280;68959;53.132;17.984;2023-04-03T13:33:01;102324.95;;;19.08;17.63
79378;BME280;68959;53.132;17.984;2023-04-03T13:35:39;102320.67;;;19.52;17.28
79378;BME280;68959;53.132;17.984;2023-04-03T13:38:22;102314.06;;;19.18;16.83
79378;BME280;68959;53.132;17.984;2023-04-03T13:40:58;102321.08;;;16.70;17.78
79378;BME280;68959;53.132;17.984;2023-04-03T13:43:35;102339.26;;;14.98;19.01
79378;BME280;68959;53.132;17.984;2023-04-03T13:46:24;102337.15;;;15.20;19.74
79378;BME280;68959;53.132;17.984;2023-04-03T13:48:54;102327.98;;;16.39;19.17
79378;BME280;68959;53.132;17.984;2023-04-03T13:51:24;102323.16;;;18.04;18.71
79378;BME280;68959;53.132;17.984;2023-04-03T13:53:59;102325.70;;;16.37;19.64
79378;BME280;68959;53.132;17.984;2023-04-03T13:59:04;102334.99;;;13.02;23.19
79378;BME280;68959;53.132;17.984;2023-04-03T14:01:41;102350.16;;;11.79;24.88
79378;BME280;68959;53.132;17.984;2023-04-03T14:04:24;102352.02;;;10.73;26.64
79378;BME280;68959;53.132;17.984;2023-04-03T14:06:52;102349.95;;;10.00;27.25
79378;BME280;68959;53.132;17.984;2023-04-03T14:09:20;102351.25;;;9.63;27.65
79378;BME280;68959;53.132;17.984;2023-04-03T14:11:49;102350.70;;;10.17;27.09
79378;BME280;68959;53.132;17.984;2023-04-03T14:14:20;102335.41;;;12.97;24.51
79378;BME280;68959;53.132;17.984;2023-04-03T14:16:53;102328.15;;;15.32;22.67
79378;BME280;68959;53.132;17.984;2023-04-03T14:19:30;102313.67;;;17.06;20.82
79378;BME280;68959;53.132;17.984;2023-04-03T14:22:00;102308.93;;;17.13;20.40
79378;BME280;68959;53.132;17.984;2023-04-03T14:24:27;102318.66;;;15.47;21.34
79378;BME280;68959;53.132;17.984;2023-04-03T14:26:54;102330.52;;;13.99;22.93
79378;BME280;68959;53.132;17.984;2023-04-03T14:29:22;102334.98;;;12.55;24.76
79378;BME280;68959;53.132;17.984;2023-04-03T14:31:49;102338.47;;;11.45;26.10